sensor_id;sensor_type;location;lat;lon;timestamp;temperature;humidity
12374;DHT22;6251;51.762;8.660;2023-02-25T00:01:46;3.10;99.90
12374;DHT22;6251;51.762;8.660;2023-02-25T00:11:47;3.10;99.90
12374;DHT22;6251;51.762;8.660;2023-02-25T02:03:33;2.80;99.90
12374;DHT22;6251;51.762;8.660;2023-02-25T02:13:38;2.80;99.90
12374;DHT22;6251;51.762;8.660;2023-02-25T03:55:14;2.90;99.90
12374;DHT22;6251;51.762;8.660;2023-02-25T05:06:17;2.90;99.90
12374;DHT22;6251;51.762;8.660;2023-02-25T05:16:18;2.90;99.90
12374;DHT22;6251;51.762;8.660;2023-02-25T05:26:21;2.90;99.90
12374;DHT22;6251;51.762;8.660;2023-02-25T05:36:22;2.80;99.90
12374;DHT22;6251;51.762;8.660;2023-02-25T05:46:23;2.70;99.90
12374;DHT22;6251;51.762;8.660;2023-02-25T05:56:24;2.70;99.90
12374;DHT22;6251;51.762;8.660;2023-02-25T06:06:28;2.60;99.90
12374;DHT22;6251;51.762;8.660;2023-02-25T06:16:29;2.60;99.90
12374;DHT22;6251;51.762;8.660;2023-02-25T06:26:31;2.50;99.90
12374;DHT22;6251;51.762;8.660;2023-02-25T06:36:32;2.50;99.90
12374;DHT22;6251;51.762;8.660;2023-02-25T06:46:33;2.50;99.90
12374;DHT22;6251;51.762;8.660;2023-02-25T06:56:33;2.50;99.90
12374;DHT22;6251;51.762;8.660;2023-02-25T07:06:34;2.50;99.90
12374;DHT22;6251;51.762;8.660;2023-02-25T07:16:34;2.60;99.90
12374;DHT22;6251;51.762;8.660;2023-02-25T07:26:35;2.60;99.90
12374;DHT22;6251;51.762;8.660;2023-02-25T07:36:37;2.60;99.90
12374;DHT22;6251;51.762;8.660;2023-02-25T07:46:38;2.60;99.90
12374;DHT22;6251;51.762;8.660;2023-02-25T07:56:40;2.70;99.90
12374;DHT22;6251;51.762;8.660;2023-02-25T08:06:41;2.80;99.90
12374;DHT22;6251;51.762;8.660;2023-02-25T08:16:41;2.90;99.90
12374;DHT22;6251;51.762;8.660;2023-02-25T08:26:42;2.90;99.90
12374;DHT22;6251;51.762;8.660;2023-02-25T08:36:43;2.90;99.90
12374;DHT22;6251;51.762;8.660;2023-02-25T08:46:44;3.00;99.90
12374;DHT22;6251;51.762;8.660;2023-02-25T08:56:45;3.10;99.90
12374;DHT22;6251;51.762;8.660;2023-02-25T09:06:46;3.30;99.90
12374;DHT22;6251;51.762;8.660;2023-02-25T09:16:47;3.40;99.90
12374;DHT22;6251;51.762;8.660;2023-02-25T09:26:48;3.30;99.90
12374;DHT22;6251;51.762;8.660;2023-02-25T09:36:49;3.40;99.90
12374;DHT22;6251;51.762;8.660;2023-02-25T09:47:00;3.40;99.90
12374;DHT22;6251;51.762;8.660;2023-02-25T09:57:03;3.20;99.90
12374;DHT22;6251;51.762;8.660;2023-02-25T10:07:22;3.20;99.90
12374;DHT22;6251;51.762;8.660;2023-02-25T10:27:58;3.30;99.90
12374;DHT22;6251;51.762;8.660;2023-02-25T10:38:00;3.50;99.90
12374;DHT22;6251;51.762;8.660;2023-02-25T10:48:27;3.40;99.90
12374;DHT22;6251;51.762;8.660;2023-02-25T10:58:38;3.60;99.90
12374;DHT22;6251;51.762;8.660;2023-02-25T11:08:40;3.40;99.90
12374;DHT22;6251;51.762;8.660;2023-02-25T11:18:40;3.30;99.90
12374;DHT22;6251;51.762;8.660;2023-02-25T11:28:47;3.40;99.90
12374;DHT22;6251;51.762;8.660;2023-02-25T11:38:48;3.40;99.90
12374;DHT22;6251;51.762;8.660;2023-02-25T12:10:40;3.70;99.90
12374;DHT22;6251;51.762;8.660;2023-02-25T13:13:42;3.60;99.90
12374;DHT22;6251;51.762;8.660;2023-02-25T13:24:13;3.50;99.90
12374;DHT22;6251;51.762;8.660;2023-02-25T14:47:09;3.50;99.90
12374;DHT22;6251;51.762;8.660;2023-02-25T15:17:54;3.40;99.90
12374;DHT22;6251;51.762;8.660;2023-02-25T15:28:03;3.20;99.90
12374;DHT22;6251;51.762;8.660;2023-02-25T15:48:40;2.90;99.90
12374;DHT22;6251;51.762;8.660;2023-02-25T16:18:52;2.60;99.90
12374;DHT22;6251;51.762;8.660;2023-02-25T16:29:15;2.50;99.90
12374;DHT22;6251;51.762;8.660;2023-02-25T16:39:25;2.30;99.90
12374;DHT22;6251;51.762;8.660;2023-02-25T16:49:33;2.10;99.90
12374;DHT22;6251;51.762;8.660;2023-02-25T16:59:37;1.80;99.90
12374;DHT22;6251;51.762;8.660;2023-02-25T17:09:45;1.60;99.90
12374;DHT22;6251;51.762;8.660;2023-02-25T17:19:46;1.40;99.90
12374;DHT22;6251;51.762;8.660;2023-02-25T17:29:48;1.30;99.90
12374;DHT22;6251;51.762;8.660;2023-02-25T17:39:50;1.30;99.90
12374;DHT22;6251;51.762;8.660;2023-02-25T17:49:51;1.10;99.90
12374;DHT22;6251;51.762;8.660;2023-02-25T18:00:43;1.00;99.90
12374;DHT22;6251;51.762;8.660;2023-02-25T18:20:31;0.70;99.90
12374;DHT22;6251;51.762;8.660;2023-02-25T18:30:32;0.60;99.90
12374;DHT22;6251;51.762;8.660;2023-02-25T18:40:37;0.40;99.90
12374;DHT22;6251;51.762;8.660;2023-02-25T18:50:39;0.30;99.90
12374;DHT22;6251;51.762;8.660;2023-02-25T19:00:46;0.10;99.90
12374;DHT22;6251;51.762;8.660;2023-02-25T19:10:47;0.10;99.90
12374;DHT22;6251;51.762;8.660;2023-02-25T19:20:47;0.00;99.90
12374;DHT22;6251;51.762;8.660;2023-02-25T19:31:12;-0.20;99.90
12374;DHT22;6251;51.762;8.660;2023-02-25T19:41:28;-0.20;99.90
12374;DHT22;6251;51.762;8.660;2023-02-25T19:51:35;-0.30;99.90
12374;DHT22;6251;51.762;8.660;2023-02-25T20:01:37;-0.40;99.90
12374;DHT22;6251;51.762;8.660;2023-02-25T20:11:38;-0.40;99.90
12374;DHT22;6251;51.762;8.660;2023-02-25T20:21:38;-0.40;99.90
12374;DHT22;6251;51.762;8.660;2023-02-25T20:31:39;-0.40;99.90
12374;DHT22;6251;51.762;8.660;2023-02-25T20:41:41;-0.50;99.90
12374;DHT22;6251;51.762;8.660;2023-02-25T20:51:42;-0.30;99.90
12374;DHT22;6251;51.762;8.660;2023-02-25T21:01:45;-0.10;99.90
12374;DHT22;6251;51.762;8.660;2023-02-25T21:11:45;0.00;99.90
12374;DHT22;6251;51.762;8.660;2023-02-25T21:21:46;0.10;99.90
12374;DHT22;6251;51.762;8.660;2023-02-25T21:31:47;0.10;99.90
12374;DHT22;6251;51.762;8.660;2023-02-25T21:41:50;0.10;99.90
12374;DHT22;6251;51.762;8.660;2023-02-25T21:51:51;0.10;99.90
